createdAt,value
2022-11-29T00:01:12.177Z,6.40
2022-11-29T00:03:40.002Z,6.40
2022-11-29T00:06:09.495Z,6.42
2022-11-29T00:08:38.077Z,6.42
2022-11-29T00:11:09.309Z,6.42
2022-11-29T00:13:37.170Z,6.42
2022-11-29T00:16:06.344Z,6.39
2022-11-29T00:18:34.694Z,6.41
2022-11-29T00:21:06.776Z,6.38
2022-11-29T00:23:34.544Z,6.40
2022-11-29T00:26:05.150Z,6.38
2022-11-29T00:28:35.472Z,6.37
2022-11-29T00:31:14.878Z,6.38
2022-11-29T00:33:42.876Z,6.38
2022-11-29T00:36:10.805Z,6.40
2022-11-29T00:38:39.083Z,6.40
2022-11-29T00:41:07.221Z,6.40
2022-11-29T00:43:36.797Z,6.39
2022-11-29T00:46:05.388Z,6.40
2022-11-29T00:48:35.073Z,6.40
2022-11-29T00:51:03.119Z,6.38
2022-11-29T00:53:30.983Z,6.36
2022-11-29T00:55:58.819Z,6.36
2022-11-29T00:58:26.689Z,6.36
2022-11-29T01:00:56.133Z,6.35
2022-11-29T01:03:24.731Z,6.37
2022-11-29T01:05:52.987Z,6.38
2022-11-29T01:08:20.677Z,6.37
2022-11-29T01:10:48.365Z,6.36
2022-11-29T01:13:16.079Z,6.36
2022-11-29T01:15:43.809Z,6.35
2022-11-29T01:18:12.937Z,6.35
2022-11-29T01:20:40.642Z,6.34
2022-11-29T01:23:08.327Z,6.34
2022-11-29T01:25:36.044Z,6.34
2022-11-29T01:28:03.808Z,6.35
2022-11-29T01:30:31.631Z,6.37
2022-11-29T01:32:59.342Z,6.40
2022-11-29T01:35:28.363Z,6.42
2022-11-29T01:37:56.039Z,6.40
2022-11-29T01:40:23.751Z,6.39
2022-11-29T01:42:51.407Z,6.40
2022-11-29T01:45:24.823Z,6.39
2022-11-29T01:47:56.268Z,6.40
2022-11-29T01:50:24.207Z,6.39
2022-11-29T01:52:53.626Z,6.40
2022-11-29T01:55:21.666Z,6.39
2022-11-29T01:57:50.021Z,6.40
2022-11-29T02:00:20.823Z,6.40
2022-11-29T02:02:52.929Z,6.39
2022-11-29T02:05:21.666Z,6.38
2022-11-29T02:07:53.087Z,6.37
2022-11-29T02:10:27.512Z,6.36
2022-11-29T02:13:01.910Z,6.38
2022-11-29T02:15:37.731Z,6.38
2022-11-29T02:18:10.842Z,6.38
2022-11-29T02:21:07.264Z,6.37
2022-11-29T02:24:11.480Z,6.35
2022-11-29T02:27:03.629Z,6.36
2022-11-29T02:29:50.383Z,6.37
2022-11-29T02:32:55.238Z,6.36
2022-11-29T02:35:43.365Z,6.36
2022-11-29T02:38:26.346Z,6.35
2022-11-29T02:41:06.262Z,6.34
2022-11-29T02:43:52.666Z,6.36
2022-11-29T02:46:40.536Z,6.36
2022-11-29T02:49:16.922Z,6.34
2022-11-29T02:51:53.349Z,6.34
2022-11-29T02:54:27.514Z,6.34
2022-11-29T02:57:00.498Z,6.35
2022-11-29T02:59:38.238Z,6.35
2022-11-29T03:02:18.927Z,6.35
2022-11-29T03:04:53.728Z,6.35
2022-11-29T03:07:26.611Z,6.35
2022-11-29T03:09:59.352Z,6.36
2022-11-29T03:12:34.897Z,6.35
2022-11-29T03:15:12.119Z,6.35
2022-11-29T03:17:56.509Z,6.37
2022-11-29T03:20:36.560Z,6.34
2022-11-29T03:23:20.069Z,6.34
2022-11-29T03:25:55.998Z,6.33
2022-11-29T03:28:28.332Z,6.33
2022-11-29T03:31:04.438Z,6.29
2022-11-29T03:33:42.608Z,6.28
2022-11-29T03:36:17.140Z,6.25
2022-11-29T03:38:47.128Z,6.25
2022-11-29T03:41:21.502Z,6.24
2022-11-29T03:44:01.436Z,6.25
2022-11-29T03:46:36.026Z,6.23
2022-11-29T03:49:08.500Z,6.24
2022-11-29T03:51:50.877Z,6.24
2022-11-29T03:54:25.332Z,6.24
2022-11-29T03:56:53.781Z,6.22
2022-11-29T03:59:37.217Z,6.21
2022-11-29T04:02:34.671Z,6.22
2022-11-29T04:05:26.360Z,6.21
2022-11-29T04:08:39.002Z,6.21
2022-11-29T04:11:54.747Z,6.22
2022-11-29T04:14:44.013Z,6.25
2022-11-29T04:17:40.939Z,6.26
2022-11-29T04:20:49.683Z,6.26
2022-11-29T04:23:59.965Z,6.25
2022-11-29T04:26:54.101Z,6.26
2022-11-29T04:29:56.345Z,6.27
2022-11-29T04:32:52.311Z,6.26
2022-11-29T04:35:34.962Z,6.24
2022-11-29T04:38:30.834Z,6.24
2022-11-29T04:41:14.870Z,6.23
2022-11-29T04:43:55.517Z,6.17
2022-11-29T04:46:56.701Z,6.16
2022-11-29T04:49:56.044Z,6.17
2022-11-29T04:52:44.151Z,6.15
2022-11-29T04:55:29.448Z,6.13
2022-11-29T04:58:10.317Z,6.11
2022-11-29T05:00:46.571Z,6.13
2022-11-29T05:03:22.091Z,6.13
2022-11-29T05:05:58.476Z,6.14
2022-11-29T05:08:34.286Z,6.13
2022-11-29T05:11:11.618Z,6.13
2022-11-29T05:13:52.140Z,6.14
2022-11-29T05:16:47.043Z,6.14
2022-11-29T05:19:46.897Z,6.15
2022-11-29T05:22:25.720Z,6.17
2022-11-29T05:25:01.708Z,6.18
2022-11-29T05:27:43.359Z,6.18
2022-11-29T05:30:16.803Z,6.20
2022-11-29T05:32:56.302Z,6.17
2022-11-29T05:35:50.275Z,6.18
2022-11-29T05:38:34.581Z,6.18
2022-11-29T05:41:16.333Z,6.19
2022-11-29T05:43:57.934Z,6.18
2022-11-29T05:46:33.301Z,6.15
2022-11-29T05:49:14.747Z,6.16
2022-11-29T05:51:51.489Z,6.16
2022-11-29T05:54:28.580Z,6.17
2022-11-29T05:57:07.326Z,6.18
2022-11-29T05:59:39.284Z,6.17
2022-11-29T06:02:18.921Z,6.17
2022-11-29T06:04:58.547Z,6.16
2022-11-29T06:07:31.692Z,6.14
2022-11-29T06:10:04.015Z,6.14
2022-11-29T06:12:36.125Z,6.11
2022-11-29T06:15:25.400Z,6.10
2022-11-29T06:18:06.149Z,6.11
2022-11-29T06:20:44.533Z,6.12
2022-11-29T06:23:28.991Z,6.10
2022-11-29T06:26:09.785Z,6.09
2022-11-29T06:28:49.597Z,6.08
2022-11-29T06:31:22.734Z,6.05
2022-11-29T06:33:59.919Z,6.03
2022-11-29T06:36:33.165Z,6.04
2022-11-29T06:39:01.225Z,6.02
2022-11-29T06:41:29.515Z,6.01
2022-11-29T06:43:57.789Z,6.02
2022-11-29T06:46:38.934Z,6.01
2022-11-29T06:49:14.027Z,6.02
2022-11-29T06:51:50.164Z,6.02
2022-11-29T06:54:33.207Z,6.03
2022-11-29T06:57:11.394Z,6.03
2022-11-29T06:59:51.634Z,6.02
2022-11-29T07:02:39.315Z,6.03
2022-11-29T07:05:16.899Z,6.00
2022-11-29T07:07:47.009Z,5.98
2022-11-29T07:10:18.141Z,5.94
2022-11-29T07:12:47.292Z,5.95
2022-11-29T07:15:17.494Z,5.95
2022-11-29T07:18:00.888Z,5.95
2022-11-29T07:20:39.683Z,5.97
2022-11-29T07:23:14.328Z,5.98
2022-11-29T07:25:54.160Z,6.00
2022-11-29T07:28:34.579Z,6.04
2022-11-29T07:31:09.771Z,6.06
2022-11-29T07:33:48.248Z,6.09
2022-11-29T07:36:24.412Z,6.08
2022-11-29T07:39:04.235Z,6.10
2022-11-29T07:41:40.741Z,6.09
2022-11-29T07:44:18.019Z,6.08
2022-11-29T07:46:45.971Z,6.08
2022-11-29T07:49:13.757Z,6.13
2022-11-29T07:51:43.122Z,6.14
2022-11-29T07:54:14.225Z,6.17
2022-11-29T07:56:41.966Z,6.20
2022-11-29T07:59:10.965Z,6.22
2022-11-29T08:01:38.701Z,6.24
2022-11-29T08:04:06.978Z,6.22
2022-11-29T08:06:34.942Z,6.21
2022-11-29T08:09:05.464Z,6.22
2022-11-29T08:11:33.270Z,6.23
2022-11-29T08:14:02.336Z,6.25
2022-11-29T08:16:30.186Z,6.28
2022-11-29T08:18:58.021Z,6.28
2022-11-29T08:21:25.828Z,6.31
2022-11-29T08:23:54.173Z,6.33
2022-11-29T08:26:26.906Z,6.34
2022-11-29T08:28:58.920Z,6.36
2022-11-29T08:31:26.694Z,6.38
2022-11-29T08:33:54.464Z,6.43
2022-11-29T08:36:22.614Z,6.44
2022-11-29T08:38:54.174Z,6.46
2022-11-29T08:41:28.485Z,6.48
2022-11-29T08:43:56.635Z,6.49
2022-11-29T08:46:44.663Z,6.50
2022-11-29T08:49:12.455Z,6.53
2022-11-29T08:51:40.245Z,6.54
2022-11-29T08:54:06.996Z,6.56
2022-11-29T08:59:25.729Z,6.62
2022-11-29T09:01:53.480Z,6.64
2022-11-29T09:04:21.248Z,6.67
2022-11-29T09:06:49.711Z,6.71
2022-11-29T09:09:18.136Z,6.76
2022-11-29T09:11:49.585Z,6.79
2022-11-29T09:14:18.157Z,6.79
2022-11-29T09:16:45.992Z,6.80
2022-11-29T09:19:15.432Z,6.83
2022-11-29T09:21:43.214Z,6.82
2022-11-29T09:24:10.966Z,6.85
2022-11-29T09:26:40.839Z,6.87
2022-11-29T09:29:10.240Z,6.88
2022-11-29T09:31:38.038Z,6.90
2022-11-29T09:34:05.773Z,6.92
2022-11-29T09:36:33.749Z,6.95
2022-11-29T09:39:03.258Z,6.98
2022-11-29T09:41:48.527Z,7.00
2022-11-29T09:44:23.370Z,7.05
2022-11-29T09:47:02.358Z,7.08
2022-11-29T09:49:51.984Z,7.10
2022-11-29T09:52:29.186Z,7.13
2022-11-29T09:55:07.339Z,7.17
2022-11-29T09:57:35.504Z,7.20
2022-11-29T10:00:08.392Z,7.23
2022-11-29T10:02:39.380Z,7.25
2022-11-29T10:05:12.356Z,7.26
2022-11-29T10:07:44.014Z,7.29
2022-11-29T10:10:19.780Z,7.30
2022-11-29T10:12:53.504Z,7.30
2022-11-29T10:15:27.395Z,7.31
2022-11-29T10:18:00.051Z,7.32
2022-11-29T10:20:35.371Z,7.32
2022-11-29T10:23:17.016Z,7.35
2022-11-29T10:25:47.856Z,7.32
2022-11-29T10:28:18.687Z,7.35
2022-11-29T10:30:48.904Z,7.35
2022-11-29T10:33:21.394Z,7.35
2022-11-29T10:35:52.195Z,7.35
2022-11-29T10:38:30.931Z,7.41
2022-11-29T10:41:06.828Z,7.43
2022-11-29T10:43:34.970Z,7.46
2022-11-29T10:46:05.439Z,7.47
2022-11-29T10:48:35.361Z,7.47
2022-11-29T10:51:03.574Z,7.46
2022-11-29T10:53:37.203Z,7.45
2022-11-29T10:56:09.505Z,7.47
2022-11-29T10:58:40.903Z,7.46
2022-11-29T11:01:14.454Z,7.48
2022-11-29T11:03:43.996Z,7.47
2022-11-29T11:06:14.726Z,7.48
2022-11-29T11:08:45.103Z,7.50
2022-11-29T11:11:13.432Z,7.49
2022-11-29T11:13:42.459Z,7.51
2022-11-29T11:16:19.419Z,7.49
2022-11-29T11:18:48.743Z,7.52
2022-11-29T11:21:19.038Z,7.53
2022-11-29T11:23:54.155Z,7.53
2022-11-29T11:26:22.533Z,7.54
2022-11-29T11:28:54.267Z,7.56
2022-11-29T11:31:34.148Z,7.56
2022-11-29T11:34:25.383Z,7.57
2022-11-29T11:36:53.712Z,7.61
2022-11-29T11:39:24.125Z,7.63
2022-11-29T11:42:10.957Z,7.63
2022-11-29T11:44:49.376Z,7.61
2022-11-29T11:47:22.373Z,7.63
2022-11-29T11:49:54.668Z,7.64
2022-11-29T11:52:24.942Z,7.66
2022-11-29T11:54:56.260Z,7.68
2022-11-29T11:57:25.462Z,7.70
2022-11-29T11:59:55.081Z,7.72
2022-11-29T12:02:29.746Z,7.74
2022-11-29T12:05:01.695Z,7.77
2022-11-29T12:08:06.943Z,7.81
2022-11-29T12:10:28.477Z,7.84
2022-11-29T12:12:58.273Z,7.86
2022-11-29T12:15:29.735Z,7.87
2022-11-29T12:18:04.500Z,7.89
2022-11-29T12:20:35.073Z,7.92
2022-11-29T12:23:26.331Z,7.91
2022-11-29T12:25:59.117Z,7.94
2022-11-29T12:28:30.507Z,7.94
2022-11-29T12:31:08.455Z,7.95
2022-11-29T12:33:47.311Z,7.96
2022-11-29T12:36:33.423Z,7.96
2022-11-29T12:39:23.661Z,7.95
2022-11-29T12:41:57.270Z,7.95
2022-11-29T12:44:37.051Z,7.96
2022-11-29T12:47:38.559Z,7.97
2022-11-29T12:50:22.956Z,7.97
2022-11-29T12:53:01.915Z,7.99
2022-11-29T12:55:42.534Z,7.98
2022-11-29T12:58:18.198Z,8.00
2022-11-29T13:00:54.543Z,8.03
2022-11-29T13:03:29.921Z,8.04
2022-11-29T13:06:09.565Z,8.05
2022-11-29T13:08:54.702Z,8.08
2022-11-29T13:11:26.824Z,8.09
2022-11-29T13:14:13.828Z,8.10
2022-11-29T13:16:56.260Z,8.11
2022-11-29T13:19:30.695Z,8.11
2022-11-29T13:22:11.686Z,8.14
2022-11-29T13:24:44.532Z,8.17
2022-11-29T13:27:19.903Z,8.20
2022-11-29T13:29:48.822Z,8.20
2022-11-29T13:32:31.196Z,8.22
2022-11-29T13:35:04.359Z,8.25
2022-11-29T13:37:40.081Z,8.24
2022-11-29T13:40:24.737Z,8.26
2022-11-29T13:43:02.845Z,8.27
2022-11-29T13:45:38.614Z,8.28
2022-11-29T13:48:33.950Z,8.28
2022-11-29T13:51:27.092Z,8.27
2022-11-29T13:53:58.572Z,8.37
2022-11-29T13:56:29.786Z,8.33
2022-11-29T13:58:58.962Z,8.32
2022-11-29T14:01:27.558Z,8.31
2022-11-29T14:04:08.373Z,8.34
2022-11-29T14:06:38.219Z,8.31
2022-11-29T14:09:29.260Z,8.31
2022-11-29T14:12:02.846Z,8.32
2022-11-29T14:14:37.206Z,8.34
2022-11-29T14:17:08.061Z,8.30
2022-11-29T14:19:37.515Z,8.30
2022-11-29T14:22:21.841Z,8.30
2022-11-29T14:25:49.137Z,8.28
2022-11-29T14:28:31.218Z,8.31
2022-11-29T14:31:01.450Z,8.30
2022-11-29T14:33:51.655Z,8.29
2022-11-29T14:36:47.438Z,8.28
2022-11-29T14:39:43.144Z,8.26
2022-11-29T14:42:19.266Z,8.26
2022-11-29T14:44:52.018Z,8.26
2022-11-29T14:47:32.279Z,8.25
2022-11-29T14:50:04.026Z,8.25
2022-11-29T14:52:34.643Z,8.26
2022-11-29T14:55:06.703Z,8.26
2022-11-29T14:58:15.756Z,8.24
2022-11-29T15:01:10.584Z,8.22
2022-11-29T15:03:49.486Z,8.23
2022-11-29T15:06:27.010Z,8.26
2022-11-29T15:09:03.901Z,8.27
2022-11-29T15:11:41.230Z,8.26
2022-11-29T15:14:29.951Z,8.25
2022-11-29T15:17:14.033Z,8.24
2022-11-29T15:20:10.135Z,8.24
2022-11-29T15:22:47.832Z,8.25
2022-11-29T15:25:18.438Z,8.24
2022-11-29T15:27:54.303Z,8.25
2022-11-29T15:30:30.275Z,8.22
2022-11-29T15:32:59.612Z,8.22
2022-11-29T15:35:28.141Z,8.21
2022-11-29T15:37:56.362Z,8.20
2022-11-29T15:40:26.409Z,8.19
2022-11-29T15:42:57.982Z,8.18
2022-11-29T15:45:34.807Z,8.18
2022-11-29T15:48:14.080Z,8.20
2022-11-29T15:50:47.111Z,8.21
2022-11-29T15:53:21.192Z,8.20
2022-11-29T15:55:51.552Z,8.18
2022-11-29T15:58:20.956Z,8.17
2022-11-29T16:00:51.659Z,8.15
2022-11-29T16:03:25.819Z,8.12
2022-11-29T16:06:05.322Z,8.13
2022-11-29T16:08:38.511Z,8.11
2022-11-29T16:11:07.877Z,8.09
2022-11-29T16:13:38.233Z,8.06
2022-11-29T16:16:12.184Z,8.06
2022-11-29T16:18:42.164Z,8.05
2022-11-29T16:21:24.735Z,8.05
2022-11-29T16:23:52.595Z,8.03
2022-11-29T16:26:24.101Z,8.05
2022-11-29T16:28:53.838Z,8.05
2022-11-29T16:31:25.602Z,8.05
2022-11-29T16:33:53.762Z,8.03
2022-11-29T16:36:24.678Z,8.00
2022-11-29T16:38:55.018Z,8.01
2022-11-29T16:41:26.132Z,7.98
2022-11-29T16:43:56.202Z,7.98
2022-11-29T16:46:37.144Z,7.98
2022-11-29T16:49:35.462Z,7.97
2022-11-29T16:52:03.982Z,7.99
2022-11-29T16:54:34.284Z,8.02
2022-11-29T16:57:06.485Z,8.02
2022-11-29T16:59:35.342Z,8.03
2022-11-29T17:02:04.675Z,8.02
2022-11-29T17:04:32.452Z,8.01
2022-11-29T17:07:00.635Z,8.02
2022-11-29T17:09:30.687Z,7.98
2022-11-29T17:12:00.961Z,7.98
2022-11-29T17:14:29.319Z,7.99
2022-11-29T17:16:57.163Z,8.01
2022-11-29T17:19:26.408Z,7.98
2022-11-29T17:21:54.076Z,7.97
2022-11-29T17:24:23.604Z,7.93
2022-11-29T17:26:51.580Z,7.91
2022-11-29T17:29:19.631Z,7.88
2022-11-29T17:31:50.451Z,7.90
2022-11-29T17:34:18.663Z,7.89
2022-11-29T17:36:47.788Z,7.87
2022-11-29T17:39:19.463Z,7.85
2022-11-29T17:41:47.607Z,7.82
2022-11-29T17:44:15.470Z,7.81
2022-11-29T17:46:43.380Z,7.79
2022-11-29T17:49:11.566Z,7.80
2022-11-29T17:51:56.467Z,7.77
2022-11-29T17:54:25.800Z,7.77
2022-11-29T17:56:53.676Z,7.77
2022-11-29T17:59:21.449Z,7.78
2022-11-29T18:01:49.320Z,7.78
2022-11-29T18:04:17.145Z,7.79
2022-11-29T18:06:49.461Z,7.80
2022-11-29T18:09:18.669Z,7.80
2022-11-29T18:11:50.148Z,7.81
2022-11-29T18:14:20.460Z,7.80
2022-11-29T18:16:48.293Z,7.80
2022-11-29T18:19:18.829Z,7.77
2022-11-29T18:21:47.309Z,7.77
2022-11-29T18:24:15.183Z,7.76
2022-11-29T18:26:43.527Z,7.74
2022-11-29T18:29:12.694Z,7.74
2022-11-29T18:31:42.667Z,7.71
2022-11-29T18:34:11.796Z,7.71
2022-11-29T18:36:43.434Z,7.72
2022-11-29T18:39:15.070Z,7.68
2022-11-29T18:41:44.756Z,7.69
2022-11-29T18:44:15.447Z,7.68
2022-11-29T18:46:44.523Z,7.65
2022-11-29T18:49:14.766Z,7.64
2022-11-29T18:51:44.789Z,7.61
2022-11-29T18:54:14.101Z,7.60
2022-11-29T18:56:42.538Z,7.58
2022-11-29T18:59:12.137Z,7.57
2022-11-29T19:01:42.728Z,7.55
2022-11-29T19:04:12.937Z,7.52
2022-11-29T19:06:41.414Z,7.50
2022-11-29T19:09:13.772Z,7.48
2022-11-29T19:11:41.749Z,7.46
2022-11-29T19:14:12.479Z,7.43
2022-11-29T19:16:42.985Z,7.41
2022-11-29T19:19:11.005Z,7.40
2022-11-29T19:21:39.686Z,7.36
2022-11-29T19:24:14.093Z,7.33
2022-11-29T19:26:44.207Z,7.32
2022-11-29T19:29:12.626Z,7.32
2022-11-29T19:31:42.557Z,7.29
2022-11-29T19:34:10.473Z,7.29
2022-11-29T19:36:42.844Z,7.29
2022-11-29T19:39:12.136Z,7.26
2022-11-29T19:41:40.001Z,7.26
2022-11-29T19:44:09.464Z,7.26
2022-11-29T19:46:38.877Z,7.26
2022-11-29T19:49:09.331Z,7.26
2022-11-29T19:51:37.667Z,7.25
2022-11-29T19:54:07.569Z,7.26
2022-11-29T19:56:36.264Z,7.26
2022-11-29T19:59:04.014Z,7.25
2022-11-29T20:01:40.404Z,7.24
2022-11-29T20:04:11.478Z,7.22
2022-11-29T20:06:39.587Z,7.21
2022-11-29T20:09:07.568Z,7.21
2022-11-29T20:11:35.396Z,7.18
2022-11-29T20:14:04.419Z,7.17
2022-11-29T20:16:32.647Z,7.14
2022-11-29T20:19:01.752Z,7.12
2022-11-29T20:21:33.713Z,7.09
2022-11-29T20:24:03.083Z,7.08
2022-11-29T20:26:32.102Z,7.04
2022-11-29T20:29:00.228Z,7.02
2022-11-29T20:31:28.373Z,7.01
2022-11-29T20:33:57.598Z,7.01
2022-11-29T20:36:38.728Z,6.97
2022-11-29T20:39:18.390Z,6.92
2022-11-29T20:41:56.285Z,6.88
2022-11-29T20:44:37.353Z,6.89
2022-11-29T20:47:14.380Z,6.86
2022-11-29T20:49:42.522Z,6.84
2022-11-29T20:52:16.497Z,6.81
2022-11-29T20:54:44.259Z,6.81
2022-11-29T20:57:12.170Z,6.81
2022-11-29T20:59:39.907Z,6.80
2022-11-29T21:02:07.698Z,6.80
2022-11-29T21:04:35.435Z,6.76
2022-11-29T21:07:03.313Z,6.76
2022-11-29T21:12:14.930Z,6.75
2022-11-29T21:14:44.215Z,6.75
2022-11-29T21:17:12.572Z,6.73
2022-11-29T21:19:41.044Z,6.67
2022-11-29T21:22:18.167Z,6.66
2022-11-29T21:24:57.512Z,6.64
2022-11-29T21:27:29.860Z,6.61
2022-11-29T21:29:58.051Z,6.57
2022-11-29T21:32:27.831Z,6.55
2022-11-29T21:34:55.647Z,6.50
2022-11-29T21:37:27.525Z,6.48
2022-11-29T21:39:57.208Z,6.45
2022-11-29T21:42:25.032Z,6.44
2022-11-29T21:44:52.855Z,6.41
2022-11-29T21:47:20.701Z,6.37
2022-11-29T21:49:48.404Z,6.34
2022-11-29T21:52:21.960Z,6.31
2022-11-29T21:54:50.518Z,6.30
2022-11-29T21:57:19.582Z,6.28
2022-11-29T21:59:47.303Z,6.25
2022-11-29T22:02:15.203Z,6.23
2022-11-29T22:04:43.139Z,6.22
2022-11-29T22:07:10.849Z,6.21
2022-11-29T22:09:38.612Z,6.20
2022-11-29T22:12:31.974Z,6.19
2022-11-29T22:14:55.820Z,6.19
2022-11-29T22:17:23.875Z,6.19
2022-11-29T22:19:51.568Z,6.20
2022-11-29T22:22:19.326Z,6.21
2022-11-29T22:24:47.315Z,6.20
2022-11-29T22:27:17.671Z,6.18
2022-11-29T22:29:45.601Z,6.16
2022-11-29T22:32:14.770Z,6.17
2022-11-29T22:34:42.497Z,6.17
2022-11-29T22:37:10.162Z,6.17
2022-11-29T22:39:37.944Z,6.18
2022-11-29T22:42:05.719Z,6.19
2022-11-29T22:44:33.491Z,6.24
2022-11-29T22:47:01.204Z,6.27
2022-11-29T22:49:33.073Z,6.30
2022-11-29T22:52:00.834Z,6.30
2022-11-29T22:54:28.552Z,6.29
2022-11-29T22:56:56.257Z,6.30
2022-11-29T22:59:23.960Z,6.33
2022-11-29T23:01:51.672Z,6.36
2022-11-29T23:04:19.557Z,6.36
2022-11-29T23:06:48.673Z,6.36
2022-11-29T23:09:21.077Z,6.36
2022-11-29T23:11:52.078Z,6.38
2022-11-29T23:14:20.171Z,6.38
2022-11-29T23:16:48.166Z,6.40
2022-11-29T23:19:16.354Z,6.39
2022-11-29T23:21:45.818Z,6.41
2022-11-29T23:24:15.375Z,6.41
2022-11-29T23:26:45.919Z,6.41
2022-11-29T23:29:15.177Z,6.42
2022-11-29T23:31:43.720Z,6.40
2022-11-29T23:34:11.582Z,6.40
2022-11-29T23:36:39.354Z,6.38
2022-11-29T23:39:07.591Z,6.41
2022-11-29T23:41:36.750Z,6.42
2022-11-29T23:44:04.667Z,6.41
2022-11-29T23:46:32.336Z,6.40
2022-11-29T23:49:00.081Z,6.40
2022-11-29T23:51:27.955Z,6.38
2022-11-29T23:53:55.766Z,6.37
2022-11-29T23:56:23.775Z,6.36
2022-11-29T23:58:52.830Z,6.36
